sensor_id;sensor_type;location;lat;lon;timestamp;P1;durP1;ratioP1;P2;durP2;ratioP2
34007;SDS011;41085;51.594;7.138;2022-11-20T00:00:42;4.93;;;2.40;;
34007;SDS011;41085;51.594;7.138;2022-11-20T00:04:42;7.50;;;3.17;;
34007;SDS011;41085;51.594;7.138;2022-11-20T00:08:43;7.20;;;3.27;;
34007;SDS011;41085;51.594;7.138;2022-11-20T00:12:44;7.57;;;4.35;;
34007;SDS011;41085;51.594;7.138;2022-11-20T00:16:45;6.63;;;4.15;;
34007;SDS011;41085;51.594;7.138;2022-11-20T00:20:46;10.77;;;4.60;;
34007;SDS011;41085;51.594;7.138;2022-11-20T00:24:46;12.00;;;5.15;;
34007;SDS011;41085;51.594;7.138;2022-11-20T00:28:51;8.20;;;4.53;;
34007;SDS011;41085;51.594;7.138;2022-11-20T00:32:59;16.23;;;5.13;;
34007;SDS011;41085;51.594;7.138;2022-11-20T00:36:59;10.83;;;4.23;;
34007;SDS011;41085;51.594;7.138;2022-11-20T00:41:00;11.33;;;4.77;;
34007;SDS011;41085;51.594;7.138;2022-11-20T00:45:03;9.47;;;4.80;;
34007;SDS011;41085;51.594;7.138;2022-11-20T00:49:04;10.37;;;4.13;;
34007;SDS011;41085;51.594;7.138;2022-11-20T00:53:05;7.32;;;3.60;;
34007;SDS011;41085;51.594;7.138;2022-11-20T00:57:05;8.13;;;3.20;;
34007;SDS011;41085;51.594;7.138;2022-11-20T01:01:07;10.47;;;4.50;;
34007;SDS011;41085;51.594;7.138;2022-11-20T01:05:08;7.55;;;4.55;;
34007;SDS011;41085;51.594;7.138;2022-11-20T01:09:10;6.30;;;4.23;;
34007;SDS011;41085;51.594;7.138;2022-11-20T01:13:12;5.78;;;3.60;;
34007;SDS011;41085;51.594;7.138;2022-11-20T01:17:31;9.63;;;4.10;;
34007;SDS011;41085;51.594;7.138;2022-11-20T01:21:33;7.70;;;3.73;;
34007;SDS011;41085;51.594;7.138;2022-11-20T01:25:35;6.60;;;4.05;;
34007;SDS011;41085;51.594;7.138;2022-11-20T01:29:35;6.97;;;4.00;;
34007;SDS011;41085;51.594;7.138;2022-11-20T01:33:36;7.57;;;3.73;;
34007;SDS011;41085;51.594;7.138;2022-11-20T01:37:36;6.77;;;3.60;;
34007;SDS011;41085;51.594;7.138;2022-11-20T01:41:37;6.18;;;3.28;;
34007;SDS011;41085;51.594;7.138;2022-11-20T01:50:22;6.38;;;3.03;;
34007;SDS011;41085;51.594;7.138;2022-11-20T01:54:39;7.13;;;3.33;;
34007;SDS011;41085;51.594;7.138;2022-11-20T01:58:50;4.93;;;2.47;;
34007;SDS011;41085;51.594;7.138;2022-11-20T02:02:55;6.57;;;2.80;;
34007;SDS011;41085;51.594;7.138;2022-11-20T02:07:02;5.18;;;2.67;;
34007;SDS011;41085;51.594;7.138;2022-11-20T02:11:04;4.63;;;2.50;;
34007;SDS011;41085;51.594;7.138;2022-11-20T02:15:05;4.93;;;2.10;;
34007;SDS011;41085;51.594;7.138;2022-11-20T02:19:07;6.70;;;2.00;;
34007;SDS011;41085;51.594;7.138;2022-11-20T02:23:18;4.20;;;2.30;;
34007;SDS011;41085;51.594;7.138;2022-11-20T02:27:31;5.10;;;2.60;;
34007;SDS011;41085;51.594;7.138;2022-11-20T02:31:40;4.27;;;2.30;;
34007;SDS011;41085;51.594;7.138;2022-11-20T02:35:43;3.50;;;2.00;;
34007;SDS011;41085;51.594;7.138;2022-11-20T02:39:49;2.90;;;2.00;;
34007;SDS011;41085;51.594;7.138;2022-11-20T02:43:51;3.15;;;1.90;;
34007;SDS011;41085;51.594;7.138;2022-11-20T02:47:52;4.22;;;2.05;;
34007;SDS011;41085;51.594;7.138;2022-11-20T02:51:52;2.85;;;1.63;;
34007;SDS011;41085;51.594;7.138;2022-11-20T02:55:53;3.20;;;1.67;;
34007;SDS011;41085;51.594;7.138;2022-11-20T02:59:54;5.50;;;2.05;;
34007;SDS011;41085;51.594;7.138;2022-11-20T03:03:54;6.13;;;2.50;;
34007;SDS011;41085;51.594;7.138;2022-11-20T03:07:55;3.45;;;1.70;;
34007;SDS011;41085;51.594;7.138;2022-11-20T03:11:56;3.57;;;1.90;;
34007;SDS011;41085;51.594;7.138;2022-11-20T03:15:57;2.97;;;1.75;;
34007;SDS011;41085;51.594;7.138;2022-11-20T03:19:57;2.83;;;1.60;;
34007;SDS011;41085;51.594;7.138;2022-11-20T03:23:58;2.10;;;1.40;;
34007;SDS011;41085;51.594;7.138;2022-11-20T03:27:59;3.15;;;1.60;;
34007;SDS011;41085;51.594;7.138;2022-11-20T03:31:59;4.13;;;1.93;;
34007;SDS011;41085;51.594;7.138;2022-11-20T03:36:04;2.90;;;1.60;;
34007;SDS011;41085;51.594;7.138;2022-11-20T03:40:06;5.27;;;1.43;;
34007;SDS011;41085;51.594;7.138;2022-11-20T03:44:08;4.60;;;1.30;;
34007;SDS011;41085;51.594;7.138;2022-11-20T03:48:10;2.30;;;1.40;;
34007;SDS011;41085;51.594;7.138;2022-11-20T03:52:11;1.40;;;1.00;;
34007;SDS011;41085;51.594;7.138;2022-11-20T03:56:12;2.45;;;1.23;;
34007;SDS011;41085;51.594;7.138;2022-11-20T04:00:14;2.05;;;1.20;;
34007;SDS011;41085;51.594;7.138;2022-11-20T04:04:15;2.13;;;1.13;;
34007;SDS011;41085;51.594;7.138;2022-11-20T04:08:15;2.43;;;0.97;;
34007;SDS011;41085;51.594;7.138;2022-11-20T04:12:16;1.67;;;1.20;;
34007;SDS011;41085;51.594;7.138;2022-11-20T04:16:17;1.73;;;1.08;;
34007;SDS011;41085;51.594;7.138;2022-11-20T04:20:18;1.80;;;1.00;;
34007;SDS011;41085;51.594;7.138;2022-11-20T04:24:19;3.55;;;0.80;;
34007;SDS011;41085;51.594;7.138;2022-11-20T04:28:20;1.43;;;0.70;;
34007;SDS011;41085;51.594;7.138;2022-11-20T04:32:20;1.53;;;0.93;;
34007;SDS011;41085;51.594;7.138;2022-11-20T04:36:22;2.05;;;0.93;;
34007;SDS011;41085;51.594;7.138;2022-11-20T04:40:24;1.80;;;1.02;;
34007;SDS011;41085;51.594;7.138;2022-11-20T04:44:24;1.77;;;1.00;;
34007;SDS011;41085;51.594;7.138;2022-11-20T04:48:25;1.42;;;0.70;;
34007;SDS011;41085;51.594;7.138;2022-11-20T04:52:26;1.80;;;1.00;;
34007;SDS011;41085;51.594;7.138;2022-11-20T04:56:27;0.57;;;0.47;;
34007;SDS011;41085;51.594;7.138;2022-11-20T05:00:28;0.68;;;0.60;;
34007;SDS011;41085;51.594;7.138;2022-11-20T05:04:28;0.80;;;0.70;;
34007;SDS011;41085;51.594;7.138;2022-11-20T05:08:29;0.60;;;0.50;;
34007;SDS011;41085;51.594;7.138;2022-11-20T05:12:30;1.08;;;0.60;;
34007;SDS011;41085;51.594;7.138;2022-11-20T05:16:33;0.75;;;0.40;;
34007;SDS011;41085;51.594;7.138;2022-11-20T05:20:35;1.30;;;0.60;;
34007;SDS011;41085;51.594;7.138;2022-11-20T05:24:36;1.10;;;0.50;;
34007;SDS011;41085;51.594;7.138;2022-11-20T05:28:36;1.40;;;0.70;;
34007;SDS011;41085;51.594;7.138;2022-11-20T05:32:37;0.77;;;0.60;;
34007;SDS011;41085;51.594;7.138;2022-11-20T05:36:37;1.10;;;0.70;;
34007;SDS011;41085;51.594;7.138;2022-11-20T05:40:38;0.63;;;0.53;;
34007;SDS011;41085;51.594;7.138;2022-11-20T05:44:39;0.82;;;0.57;;
34007;SDS011;41085;51.594;7.138;2022-11-20T05:48:40;2.00;;;0.67;;
34007;SDS011;41085;51.594;7.138;2022-11-20T05:52:42;0.77;;;0.60;;
34007;SDS011;41085;51.594;7.138;2022-11-20T05:56:42;1.27;;;0.77;;
34007;SDS011;41085;51.594;7.138;2022-11-20T06:00:43;1.05;;;0.60;;
34007;SDS011;41085;51.594;7.138;2022-11-20T06:04:43;2.10;;;0.80;;
34007;SDS011;41085;51.594;7.138;2022-11-20T06:08:44;0.67;;;0.60;;
34007;SDS011;41085;51.594;7.138;2022-11-20T06:12:44;1.23;;;0.60;;
34007;SDS011;41085;51.594;7.138;2022-11-20T06:16:45;0.90;;;0.70;;
34007;SDS011;41085;51.594;7.138;2022-11-20T06:20:46;0.93;;;0.53;;
34007;SDS011;41085;51.594;7.138;2022-11-20T06:24:47;0.90;;;0.70;;
34007;SDS011;41085;51.594;7.138;2022-11-20T06:28:47;1.00;;;0.60;;
34007;SDS011;41085;51.594;7.138;2022-11-20T06:32:48;1.10;;;0.70;;
34007;SDS011;41085;51.594;7.138;2022-11-20T06:36:49;1.07;;;0.60;;
34007;SDS011;41085;51.594;7.138;2022-11-20T06:40:49;2.37;;;1.10;;
34007;SDS011;41085;51.594;7.138;2022-11-20T06:44:50;2.55;;;1.73;;
34007;SDS011;41085;51.594;7.138;2022-11-20T06:48:50;2.43;;;1.70;;
34007;SDS011;41085;51.594;7.138;2022-11-20T06:52:51;3.03;;;1.33;;
34007;SDS011;41085;51.594;7.138;2022-11-20T06:56:51;1.60;;;1.25;;
34007;SDS011;41085;51.594;7.138;2022-11-20T07:00:52;1.00;;;0.83;;
34007;SDS011;41085;51.594;7.138;2022-11-20T07:04:53;1.60;;;0.90;;
34007;SDS011;41085;51.594;7.138;2022-11-20T07:08:53;1.63;;;1.20;;
34007;SDS011;41085;51.594;7.138;2022-11-20T07:12:54;1.77;;;0.90;;
34007;SDS011;41085;51.594;7.138;2022-11-20T07:16:55;1.88;;;1.10;;
34007;SDS011;41085;51.594;7.138;2022-11-20T07:20:55;1.80;;;0.90;;
34007;SDS011;41085;51.594;7.138;2022-11-20T07:24:59;1.58;;;0.98;;
34007;SDS011;41085;51.594;7.138;2022-11-20T07:29:01;2.10;;;0.70;;
34007;SDS011;41085;51.594;7.138;2022-11-20T07:33:02;2.37;;;0.80;;
34007;SDS011;41085;51.594;7.138;2022-11-20T07:37:03;1.20;;;0.80;;
34007;SDS011;41085;51.594;7.138;2022-11-20T07:41:03;1.00;;;0.63;;
34007;SDS011;41085;51.594;7.138;2022-11-20T07:45:04;0.97;;;0.70;;
34007;SDS011;41085;51.594;7.138;2022-11-20T07:49:05;1.88;;;0.90;;
34007;SDS011;41085;51.594;7.138;2022-11-20T07:53:06;1.23;;;0.67;;
34007;SDS011;41085;51.594;7.138;2022-11-20T07:57:06;3.85;;;0.80;;
34007;SDS011;41085;51.594;7.138;2022-11-20T08:01:07;1.20;;;0.50;;
34007;SDS011;41085;51.594;7.138;2022-11-20T08:05:08;3.70;;;0.57;;
34007;SDS011;41085;51.594;7.138;2022-11-20T08:09:09;1.23;;;0.73;;
34007;SDS011;41085;51.594;7.138;2022-11-20T08:13:11;1.05;;;0.60;;
34007;SDS011;41085;51.594;7.138;2022-11-20T08:17:30;1.90;;;0.80;;
34007;SDS011;41085;51.594;7.138;2022-11-20T08:21:30;1.50;;;0.70;;
34007;SDS011;41085;51.594;7.138;2022-11-20T08:25:32;1.10;;;0.60;;
34007;SDS011;41085;51.594;7.138;2022-11-20T08:29:33;1.30;;;0.70;;
34007;SDS011;41085;51.594;7.138;2022-11-20T08:33:34;0.53;;;0.50;;
34007;SDS011;41085;51.594;7.138;2022-11-20T08:37:35;0.88;;;0.60;;
34007;SDS011;41085;51.594;7.138;2022-11-20T08:41:37;1.88;;;0.80;;
34007;SDS011;41085;51.594;7.138;2022-11-20T08:45:37;8.23;;;0.80;;
34007;SDS011;41085;51.594;7.138;2022-11-20T08:49:38;0.50;;;0.33;;
34007;SDS011;41085;51.594;7.138;2022-11-20T08:53:39;2.00;;;0.65;;
34007;SDS011;41085;51.594;7.138;2022-11-20T08:57:40;0.90;;;0.60;;
34007;SDS011;41085;51.594;7.138;2022-11-20T09:01:41;0.80;;;0.50;;
34007;SDS011;41085;51.594;7.138;2022-11-20T09:05:41;2.30;;;0.70;;
34007;SDS011;41085;51.594;7.138;2022-11-20T09:09:42;0.70;;;0.50;;
34007;SDS011;41085;51.594;7.138;2022-11-20T09:13:43;0.60;;;0.40;;
34007;SDS011;41085;51.594;7.138;2022-11-20T09:17:50;1.03;;;0.53;;
34007;SDS011;41085;51.594;7.138;2022-11-20T09:21:54;0.60;;;0.40;;
34007;SDS011;41085;51.594;7.138;2022-11-20T09:25:55;0.40;;;0.40;;
34007;SDS011;41085;51.594;7.138;2022-11-20T09:29:59;1.90;;;0.60;;
34007;SDS011;41085;51.594;7.138;2022-11-20T09:34:00;1.20;;;0.60;;
34007;SDS011;41085;51.594;7.138;2022-11-20T09:38:04;1.07;;;0.50;;
34007;SDS011;41085;51.594;7.138;2022-11-20T09:50:58;3.97;;;0.40;;
34007;SDS011;41085;51.594;7.138;2022-11-20T09:55:22;3.60;;;0.60;;
34007;SDS011;41085;51.594;7.138;2022-11-20T09:59:29;1.00;;;0.35;;
34007;SDS011;41085;51.594;7.138;2022-11-20T10:03:36;2.13;;;0.30;;
34007;SDS011;41085;51.594;7.138;2022-11-20T10:17:12;1.90;;;0.60;;
34007;SDS011;41085;51.594;7.138;2022-11-20T10:21:19;0.83;;;0.30;;
34007;SDS011;41085;51.594;7.138;2022-11-20T10:25:39;0.32;;;0.30;;
34007;SDS011;41085;51.594;7.138;2022-11-20T10:29:47;0.80;;;0.50;;
34007;SDS011;41085;51.594;7.138;2022-11-20T10:34:12;1.55;;;0.65;;
34007;SDS011;41085;51.594;7.138;2022-11-20T10:38:29;0.20;;;0.20;;
34007;SDS011;41085;51.594;7.138;2022-11-20T10:42:43;0.70;;;0.30;;
34007;SDS011;41085;51.594;7.138;2022-11-20T10:51:30;0.50;;;0.50;;
34007;SDS011;41085;51.594;7.138;2022-11-20T10:55:56;0.70;;;0.40;;
34007;SDS011;41085;51.594;7.138;2022-11-20T11:00:04;0.43;;;0.40;;
34007;SDS011;41085;51.594;7.138;2022-11-20T11:04:18;0.93;;;0.55;;
34007;SDS011;41085;51.594;7.138;2022-11-20T11:08:40;3.78;;;1.98;;
34007;SDS011;41085;51.594;7.138;2022-11-20T11:12:46;3.60;;;2.63;;
34007;SDS011;41085;51.594;7.138;2022-11-20T11:20:52;5.13;;;3.00;;
34007;SDS011;41085;51.594;7.138;2022-11-20T11:24:54;2.80;;;1.87;;
34007;SDS011;41085;51.594;7.138;2022-11-20T11:28:55;3.60;;;1.90;;
34007;SDS011;41085;51.594;7.138;2022-11-20T11:33:09;4.35;;;2.13;;
34007;SDS011;41085;51.594;7.138;2022-11-20T11:37:18;1.52;;;1.23;;
34007;SDS011;41085;51.594;7.138;2022-11-20T11:41:25;2.13;;;1.20;;
34007;SDS011;41085;51.594;7.138;2022-11-20T11:45:36;1.48;;;1.02;;
34007;SDS011;41085;51.594;7.138;2022-11-20T11:49:37;1.53;;;1.00;;
34007;SDS011;41085;51.594;7.138;2022-11-20T11:53:38;3.33;;;1.10;;
34007;SDS011;41085;51.594;7.138;2022-11-20T11:57:56;6.13;;;0.90;;
34007;SDS011;41085;51.594;7.138;2022-11-20T12:02:15;1.48;;;0.95;;
34007;SDS011;41085;51.594;7.138;2022-11-20T12:06:27;0.60;;;0.60;;
34007;SDS011;41085;51.594;7.138;2022-11-20T12:10:39;1.50;;;0.88;;
34007;SDS011;41085;51.594;7.138;2022-11-20T12:14:57;2.15;;;0.70;;
34007;SDS011;41085;51.594;7.138;2022-11-20T12:18:58;1.88;;;0.60;;
34007;SDS011;41085;51.594;7.138;2022-11-20T12:23:02;2.40;;;0.73;;
34007;SDS011;41085;51.594;7.138;2022-11-20T12:27:43;1.42;;;0.82;;
34007;SDS011;41085;51.594;7.138;2022-11-20T12:31:53;1.00;;;0.80;;
34007;SDS011;41085;51.594;7.138;2022-11-20T12:36:54;0.90;;;0.80;;
34007;SDS011;41085;51.594;7.138;2022-11-20T12:45:02;2.72;;;0.60;;
34007;SDS011;41085;51.594;7.138;2022-11-20T12:57:58;1.30;;;0.85;;
34007;SDS011;41085;51.594;7.138;2022-11-20T13:06:34;0.73;;;0.60;;
34007;SDS011;41085;51.594;7.138;2022-11-20T13:10:41;1.65;;;0.70;;
34007;SDS011;41085;51.594;7.138;2022-11-20T13:14:51;1.08;;;0.75;;
34007;SDS011;41085;51.594;7.138;2022-11-20T13:18:55;1.40;;;0.60;;
34007;SDS011;41085;51.594;7.138;2022-11-20T13:23:00;0.50;;;0.50;;
34007;SDS011;41085;51.594;7.138;2022-11-20T13:31:30;1.55;;;0.65;;
34007;SDS011;41085;51.594;7.138;2022-11-20T13:39:34;0.95;;;0.50;;
34007;SDS011;41085;51.594;7.138;2022-11-20T13:43:42;0.93;;;0.60;;
34007;SDS011;41085;51.594;7.138;2022-11-20T13:47:51;0.95;;;0.52;;
34007;SDS011;41085;51.594;7.138;2022-11-20T13:56:24;1.38;;;0.90;;
34007;SDS011;41085;51.594;7.138;2022-11-20T14:00:44;0.95;;;0.88;;
34007;SDS011;41085;51.594;7.138;2022-11-20T14:04:56;0.60;;;0.60;;
34007;SDS011;41085;51.594;7.138;2022-11-20T14:08:58;0.77;;;0.60;;
34007;SDS011;41085;51.594;7.138;2022-11-20T14:13:09;1.50;;;0.80;;
34007;SDS011;41085;51.594;7.138;2022-11-20T14:17:21;0.90;;;0.60;;
34007;SDS011;41085;51.594;7.138;2022-11-20T14:21:28;0.65;;;0.50;;
34007;SDS011;41085;51.594;7.138;2022-11-20T14:25:29;0.98;;;0.50;;
34007;SDS011;41085;51.594;7.138;2022-11-20T14:29:37;0.60;;;0.40;;
34007;SDS011;41085;51.594;7.138;2022-11-20T14:33:38;1.40;;;0.65;;
34007;SDS011;41085;51.594;7.138;2022-11-20T14:37:39;1.00;;;0.70;;
34007;SDS011;41085;51.594;7.138;2022-11-20T14:41:49;0.57;;;0.50;;
34007;SDS011;41085;51.594;7.138;2022-11-20T14:45:58;0.67;;;0.43;;
34007;SDS011;41085;51.594;7.138;2022-11-20T14:50:01;1.30;;;0.70;;
34007;SDS011;41085;51.594;7.138;2022-11-20T14:54:09;0.88;;;0.50;;
34007;SDS011;41085;51.594;7.138;2022-11-20T14:58:23;1.65;;;0.60;;
34007;SDS011;41085;51.594;7.138;2022-11-20T15:02:25;0.50;;;0.50;;
34007;SDS011;41085;51.594;7.138;2022-11-20T15:06:25;1.00;;;0.60;;
34007;SDS011;41085;51.594;7.138;2022-11-20T15:10:27;0.73;;;0.45;;
34007;SDS011;41085;51.594;7.138;2022-11-20T15:14:28;0.45;;;0.45;;
34007;SDS011;41085;51.594;7.138;2022-11-20T15:18:37;0.70;;;0.50;;
34007;SDS011;41085;51.594;7.138;2022-11-20T15:22:41;0.85;;;0.45;;
34007;SDS011;41085;51.594;7.138;2022-11-20T15:26:42;1.43;;;0.57;;
34007;SDS011;41085;51.594;7.138;2022-11-20T15:30:43;1.60;;;0.73;;
34007;SDS011;41085;51.594;7.138;2022-11-20T15:34:45;0.63;;;0.50;;
34007;SDS011;41085;51.594;7.138;2022-11-20T15:38:45;1.87;;;0.70;;
34007;SDS011;41085;51.594;7.138;2022-11-20T15:42:46;0.70;;;0.50;;
34007;SDS011;41085;51.594;7.138;2022-11-20T15:47:02;0.80;;;0.50;;
34007;SDS011;41085;51.594;7.138;2022-11-20T15:51:49;1.10;;;0.40;;
34007;SDS011;41085;51.594;7.138;2022-11-20T15:55:37;0.90;;;0.60;;
34007;SDS011;41085;51.594;7.138;2022-11-20T15:59:37;0.57;;;0.50;;
34007;SDS011;41085;51.594;7.138;2022-11-20T16:03:41;0.35;;;0.35;;
34007;SDS011;41085;51.594;7.138;2022-11-20T16:07:41;1.60;;;0.70;;
34007;SDS011;41085;51.594;7.138;2022-11-20T16:11:42;0.70;;;0.50;;
34007;SDS011;41085;51.594;7.138;2022-11-20T16:15:44;1.17;;;0.40;;
34007;SDS011;41085;51.594;7.138;2022-11-20T16:19:52;0.80;;;0.50;;
34007;SDS011;41085;51.594;7.138;2022-11-20T16:23:53;1.30;;;0.50;;
34007;SDS011;41085;51.594;7.138;2022-11-20T16:27:53;0.55;;;0.40;;
34007;SDS011;41085;51.594;7.138;2022-11-20T16:31:54;0.30;;;0.30;;
34007;SDS011;41085;51.594;7.138;2022-11-20T16:35:56;0.32;;;0.28;;
34007;SDS011;41085;51.594;7.138;2022-11-20T16:39:57;0.67;;;0.40;;
34007;SDS011;41085;51.594;7.138;2022-11-20T16:43:58;0.55;;;0.40;;
34007;SDS011;41085;51.594;7.138;2022-11-20T16:48:00;0.80;;;0.40;;
34007;SDS011;41085;51.594;7.138;2022-11-20T16:52:00;1.10;;;0.50;;
34007;SDS011;41085;51.594;7.138;2022-11-20T16:56:11;0.50;;;0.40;;
34007;SDS011;41085;51.594;7.138;2022-11-20T17:00:15;0.30;;;0.30;;
34007;SDS011;41085;51.594;7.138;2022-11-20T17:04:15;0.57;;;0.37;;
34007;SDS011;41085;51.594;7.138;2022-11-20T17:08:16;0.52;;;0.40;;
34007;SDS011;41085;51.594;7.138;2022-11-20T17:12:17;0.80;;;0.60;;
34007;SDS011;41085;51.594;7.138;2022-11-20T17:16:18;0.70;;;0.35;;
34007;SDS011;41085;51.594;7.138;2022-11-20T17:20:20;0.50;;;0.30;;
34007;SDS011;41085;51.594;7.138;2022-11-20T17:24:21;0.77;;;0.47;;
34007;SDS011;41085;51.594;7.138;2022-11-20T17:28:21;0.63;;;0.40;;
34007;SDS011;41085;51.594;7.138;2022-11-20T17:32:22;0.32;;;0.30;;
34007;SDS011;41085;51.594;7.138;2022-11-20T17:36:23;0.50;;;0.40;;
34007;SDS011;41085;51.594;7.138;2022-11-20T17:40:24;0.60;;;0.40;;
34007;SDS011;41085;51.594;7.138;2022-11-20T17:44:24;0.52;;;0.40;;
34007;SDS011;41085;51.594;7.138;2022-11-20T17:48:25;0.40;;;0.40;;
34007;SDS011;41085;51.594;7.138;2022-11-20T17:52:27;0.37;;;0.30;;
34007;SDS011;41085;51.594;7.138;2022-11-20T17:56:31;0.35;;;0.35;;
34007;SDS011;41085;51.594;7.138;2022-11-20T18:00:51;0.63;;;0.50;;
34007;SDS011;41085;51.594;7.138;2022-11-20T18:04:51;0.40;;;0.28;;
34007;SDS011;41085;51.594;7.138;2022-11-20T18:08:52;0.60;;;0.43;;
34007;SDS011;41085;51.594;7.138;2022-11-20T18:12:53;0.70;;;0.50;;
34007;SDS011;41085;51.594;7.138;2022-11-20T18:16:54;0.43;;;0.27;;
34007;SDS011;41085;51.594;7.138;2022-11-20T18:20:56;0.50;;;0.40;;
34007;SDS011;41085;51.594;7.138;2022-11-20T18:24:57;0.45;;;0.30;;
34007;SDS011;41085;51.594;7.138;2022-11-20T18:28:57;0.47;;;0.40;;
34007;SDS011;41085;51.594;7.138;2022-11-20T18:32:58;0.53;;;0.37;;
34007;SDS011;41085;51.594;7.138;2022-11-20T18:36:58;0.75;;;0.60;;
34007;SDS011;41085;51.594;7.138;2022-11-20T18:40:59;0.40;;;0.30;;
34007;SDS011;41085;51.594;7.138;2022-11-20T18:45:00;0.30;;;0.30;;
34007;SDS011;41085;51.594;7.138;2022-11-20T18:49:03;0.83;;;0.47;;
34007;SDS011;41085;51.594;7.138;2022-11-20T18:53:03;0.40;;;0.40;;
34007;SDS011;41085;51.594;7.138;2022-11-20T18:57:04;1.83;;;0.30;;
34007;SDS011;41085;51.594;7.138;2022-11-20T19:01:05;0.37;;;0.30;;
34007;SDS011;41085;51.594;7.138;2022-11-20T19:05:06;0.40;;;0.30;;
34007;SDS011;41085;51.594;7.138;2022-11-20T19:09:09;0.68;;;0.40;;
34007;SDS011;41085;51.594;7.138;2022-11-20T19:13:11;0.40;;;0.30;;
34007;SDS011;41085;51.594;7.138;2022-11-20T19:17:11;0.30;;;0.30;;
34007;SDS011;41085;51.594;7.138;2022-11-20T19:21:17;0.80;;;0.40;;
34007;SDS011;41085;51.594;7.138;2022-11-20T19:25:22;1.10;;;0.50;;
34007;SDS011;41085;51.594;7.138;2022-11-20T19:29:23;0.60;;;0.20;;
34007;SDS011;41085;51.594;7.138;2022-11-20T19:33:25;0.32;;;0.30;;
34007;SDS011;41085;51.594;7.138;2022-11-20T19:37:26;0.63;;;0.40;;
34007;SDS011;41085;51.594;7.138;2022-11-20T19:41:27;0.60;;;0.40;;
34007;SDS011;41085;51.594;7.138;2022-11-20T19:45:30;0.65;;;0.40;;
34007;SDS011;41085;51.594;7.138;2022-11-20T19:49:30;0.30;;;0.30;;
34007;SDS011;41085;51.594;7.138;2022-11-20T19:53:31;0.60;;;0.45;;
34007;SDS011;41085;51.594;7.138;2022-11-20T19:57:32;1.27;;;0.53;;
34007;SDS011;41085;51.594;7.138;2022-11-20T20:01:32;0.27;;;0.20;;
34007;SDS011;41085;51.594;7.138;2022-11-20T20:05:34;0.70;;;0.40;;
34007;SDS011;41085;51.594;7.138;2022-11-20T20:09:34;0.63;;;0.20;;
34007;SDS011;41085;51.594;7.138;2022-11-20T20:13:35;1.50;;;0.40;;
34007;SDS011;41085;51.594;7.138;2022-11-20T20:17:35;0.40;;;0.25;;
34007;SDS011;41085;51.594;7.138;2022-11-20T20:21:36;0.57;;;0.50;;
34007;SDS011;41085;51.594;7.138;2022-11-20T20:25:36;0.30;;;0.30;;
34007;SDS011;41085;51.594;7.138;2022-11-20T20:29:37;0.33;;;0.30;;
34007;SDS011;41085;51.594;7.138;2022-11-20T20:33:38;0.68;;;0.30;;
34007;SDS011;41085;51.594;7.138;2022-11-20T20:37:39;2.40;;;0.40;;
34007;SDS011;41085;51.594;7.138;2022-11-20T20:41:41;0.90;;;0.47;;
34007;SDS011;41085;51.594;7.138;2022-11-20T20:45:45;0.40;;;0.40;;
34007;SDS011;41085;51.594;7.138;2022-11-20T20:49:47;0.38;;;0.30;;
34007;SDS011;41085;51.594;7.138;2022-11-20T20:53:47;0.30;;;0.20;;
34007;SDS011;41085;51.594;7.138;2022-11-20T20:57:48;0.40;;;0.40;;
34007;SDS011;41085;51.594;7.138;2022-11-20T21:01:49;0.50;;;0.30;;
34007;SDS011;41085;51.594;7.138;2022-11-20T21:05:54;0.40;;;0.40;;
34007;SDS011;41085;51.594;7.138;2022-11-20T21:09:56;1.58;;;0.90;;
34007;SDS011;41085;51.594;7.138;2022-11-20T21:13:56;2.00;;;1.20;;
34007;SDS011;41085;51.594;7.138;2022-11-20T21:17:57;1.07;;;0.93;;
34007;SDS011;41085;51.594;7.138;2022-11-20T21:21:57;2.58;;;1.00;;
34007;SDS011;41085;51.594;7.138;2022-11-20T21:26:02;2.07;;;1.00;;
34007;SDS011;41085;51.594;7.138;2022-11-20T21:30:04;1.10;;;0.90;;
34007;SDS011;41085;51.594;7.138;2022-11-20T21:34:05;1.70;;;0.50;;
34007;SDS011;41085;51.594;7.138;2022-11-20T21:38:09;1.50;;;0.75;;
34007;SDS011;41085;51.594;7.138;2022-11-20T21:42:10;1.27;;;0.63;;
34007;SDS011;41085;51.594;7.138;2022-11-20T21:46:11;0.60;;;0.50;;
34007;SDS011;41085;51.594;7.138;2022-11-20T21:50:13;2.55;;;0.65;;
34007;SDS011;41085;51.594;7.138;2022-11-20T21:54:14;0.70;;;0.60;;
34007;SDS011;41085;51.594;7.138;2022-11-20T21:58:16;1.13;;;0.73;;
34007;SDS011;41085;51.594;7.138;2022-11-20T22:02:17;1.17;;;0.68;;
34007;SDS011;41085;51.594;7.138;2022-11-20T22:06:17;2.30;;;0.80;;
34007;SDS011;41085;51.594;7.138;2022-11-20T22:10:19;1.25;;;0.80;;
34007;SDS011;41085;51.594;7.138;2022-11-20T22:14:20;0.73;;;0.60;;
34007;SDS011;41085;51.594;7.138;2022-11-20T22:18:20;0.63;;;0.45;;
34007;SDS011;41085;51.594;7.138;2022-11-20T22:22:21;0.60;;;0.53;;
34007;SDS011;41085;51.594;7.138;2022-11-20T22:26:22;1.13;;;0.70;;
34007;SDS011;41085;51.594;7.138;2022-11-20T22:30:25;4.93;;;0.50;;
34007;SDS011;41085;51.594;7.138;2022-11-20T22:34:26;1.02;;;0.57;;
34007;SDS011;41085;51.594;7.138;2022-11-20T22:38:26;1.20;;;0.50;;
34007;SDS011;41085;51.594;7.138;2022-11-20T22:42:27;0.38;;;0.38;;
34007;SDS011;41085;51.594;7.138;2022-11-20T22:46:28;0.63;;;0.53;;
34007;SDS011;41085;51.594;7.138;2022-11-20T22:50:30;1.30;;;0.60;;
34007;SDS011;41085;51.594;7.138;2022-11-20T22:54:31;1.00;;;0.70;;
34007;SDS011;41085;51.594;7.138;2022-11-20T22:58:32;1.10;;;0.40;;
34007;SDS011;41085;51.594;7.138;2022-11-20T23:02:33;0.70;;;0.47;;
34007;SDS011;41085;51.594;7.138;2022-11-20T23:06:34;1.00;;;0.43;;
34007;SDS011;41085;51.594;7.138;2022-11-20T23:10:35;3.03;;;0.60;;
34007;SDS011;41085;51.594;7.138;2022-11-20T23:14:35;1.63;;;0.50;;
34007;SDS011;41085;51.594;7.138;2022-11-20T23:18:36;0.87;;;0.50;;
34007;SDS011;41085;51.594;7.138;2022-11-20T23:22:36;7.45;;;0.50;;
34007;SDS011;41085;51.594;7.138;2022-11-20T23:26:38;0.60;;;0.50;;
34007;SDS011;41085;51.594;7.138;2022-11-20T23:30:39;3.28;;;0.38;;
34007;SDS011;41085;51.594;7.138;2022-11-20T23:34:40;1.00;;;0.37;;
34007;SDS011;41085;51.594;7.138;2022-11-20T23:38:40;0.60;;;0.55;;
34007;SDS011;41085;51.594;7.138;2022-11-20T23:42:41;0.90;;;0.50;;
34007;SDS011;41085;51.594;7.138;2022-11-20T23:47:01;0.50;;;0.38;;
34007;SDS011;41085;51.594;7.138;2022-11-20T23:51:02;3.10;;;0.30;;
34007;SDS011;41085;51.594;7.138;2022-11-20T23:55:04;2.10;;;0.43;;
34007;SDS011;41085;51.594;7.138;2022-11-20T23:59:05;1.05;;;0.50;;
